sensor_id;sensor_type;location;lat;lon;timestamp;P1;durP1;ratioP1;P2;durP2;ratioP2
43504;SDS011;29098;48.184;16.298;2023-04-24T00:02:22;6.78;;;4.50;;
43504;SDS011;29098;48.184;16.298;2023-04-24T00:04:48;8.25;;;4.75;;
43504;SDS011;29098;48.184;16.298;2023-04-24T00:07:14;7.07;;;4.47;;
43504;SDS011;29098;48.184;16.298;2023-04-24T00:09:42;10.55;;;5.40;;
43504;SDS011;29098;48.184;16.298;2023-04-24T00:12:08;8.13;;;4.40;;
43504;SDS011;29098;48.184;16.298;2023-04-24T00:14:34;9.05;;;4.30;;
43504;SDS011;29098;48.184;16.298;2023-04-24T00:17:00;8.13;;;4.85;;
43504;SDS011;29098;48.184;16.298;2023-04-24T00:19:27;5.82;;;4.68;;
43504;SDS011;29098;48.184;16.298;2023-04-24T00:21:53;7.55;;;5.57;;
43504;SDS011;29098;48.184;16.298;2023-04-24T00:24:19;6.72;;;4.85;;
43504;SDS011;29098;48.184;16.298;2023-04-24T00:26:46;7.32;;;4.75;;
43504;SDS011;29098;48.184;16.298;2023-04-24T00:29:13;7.40;;;4.95;;
43504;SDS011;29098;48.184;16.298;2023-04-24T00:31:39;6.18;;;4.50;;
43504;SDS011;29098;48.184;16.298;2023-04-24T00:34:04;7.15;;;5.18;;
43504;SDS011;29098;48.184;16.298;2023-04-24T00:36:30;6.38;;;4.70;;
43504;SDS011;29098;48.184;16.298;2023-04-24T00:38:57;7.03;;;4.40;;
43504;SDS011;29098;48.184;16.298;2023-04-24T00:41:24;6.78;;;4.65;;
43504;SDS011;29098;48.184;16.298;2023-04-24T00:43:50;6.68;;;4.97;;
43504;SDS011;29098;48.184;16.298;2023-04-24T00:46:16;7.32;;;4.60;;
43504;SDS011;29098;48.184;16.298;2023-04-24T00:48:42;6.78;;;4.35;;
43504;SDS011;29098;48.184;16.298;2023-04-24T00:51:08;6.18;;;4.63;;
43504;SDS011;29098;48.184;16.298;2023-04-24T00:53:34;7.55;;;4.78;;
43504;SDS011;29098;48.184;16.298;2023-04-24T00:56:00;6.70;;;4.82;;
43504;SDS011;29098;48.184;16.298;2023-04-24T00:58:26;8.15;;;5.20;;
43504;SDS011;29098;48.184;16.298;2023-04-24T01:00:52;8.45;;;5.03;;
43504;SDS011;29098;48.184;16.298;2023-04-24T01:03:22;6.78;;;5.03;;
43504;SDS011;29098;48.184;16.298;2023-04-24T01:05:51;8.88;;;4.68;;
43504;SDS011;29098;48.184;16.298;2023-04-24T01:08:19;6.32;;;4.65;;
43504;SDS011;29098;48.184;16.298;2023-04-24T01:10:48;6.93;;;4.40;;
43504;SDS011;29098;48.184;16.298;2023-04-24T01:13:17;7.30;;;5.10;;
43504;SDS011;29098;48.184;16.298;2023-04-24T01:15:44;8.10;;;4.95;;
43504;SDS011;29098;48.184;16.298;2023-04-24T01:18:09;7.90;;;4.63;;
43504;SDS011;29098;48.184;16.298;2023-04-24T01:20:35;7.28;;;4.28;;
43504;SDS011;29098;48.184;16.298;2023-04-24T01:23:05;7.10;;;5.05;;
43504;SDS011;29098;48.184;16.298;2023-04-24T01:25:31;7.78;;;5.18;;
43504;SDS011;29098;48.184;16.298;2023-04-24T01:27:56;7.10;;;4.78;;
43504;SDS011;29098;48.184;16.298;2023-04-24T01:30:22;8.00;;;4.60;;
43504;SDS011;29098;48.184;16.298;2023-04-24T01:32:48;8.77;;;4.40;;
43504;SDS011;29098;48.184;16.298;2023-04-24T01:35:13;10.40;;;4.93;;
43504;SDS011;29098;48.184;16.298;2023-04-24T01:37:39;9.27;;;4.78;;
43504;SDS011;29098;48.184;16.298;2023-04-24T01:40:06;11.55;;;5.47;;
43504;SDS011;29098;48.184;16.298;2023-04-24T01:42:32;9.30;;;4.85;;
43504;SDS011;29098;48.184;16.298;2023-04-24T01:44:59;9.68;;;5.22;;
43504;SDS011;29098;48.184;16.298;2023-04-24T01:47:25;8.98;;;5.03;;
43504;SDS011;29098;48.184;16.298;2023-04-24T01:49:51;6.30;;;4.78;;
43504;SDS011;29098;48.184;16.298;2023-04-24T01:52:17;8.52;;;5.30;;
43504;SDS011;29098;48.184;16.298;2023-04-24T01:54:43;8.75;;;4.85;;
43504;SDS011;29098;48.184;16.298;2023-04-24T01:57:09;7.32;;;4.93;;
43504;SDS011;29098;48.184;16.298;2023-04-24T01:59:35;6.78;;;5.00;;
43504;SDS011;29098;48.184;16.298;2023-04-24T02:02:02;9.50;;;5.43;;
43504;SDS011;29098;48.184;16.298;2023-04-24T02:04:28;7.32;;;4.60;;
43504;SDS011;29098;48.184;16.298;2023-04-24T02:06:53;9.38;;;4.85;;
43504;SDS011;29098;48.184;16.298;2023-04-24T02:09:19;8.13;;;4.45;;
43504;SDS011;29098;48.184;16.298;2023-04-24T02:11:45;8.95;;;4.78;;
43504;SDS011;29098;48.184;16.298;2023-04-24T02:14:10;10.20;;;5.57;;
43504;SDS011;29098;48.184;16.298;2023-04-24T02:16:36;8.90;;;4.95;;
43504;SDS011;29098;48.184;16.298;2023-04-24T02:19:01;8.68;;;4.40;;
43504;SDS011;29098;48.184;16.298;2023-04-24T02:21:27;9.48;;;4.88;;
43504;SDS011;29098;48.184;16.298;2023-04-24T02:23:53;9.25;;;5.05;;
43504;SDS011;29098;48.184;16.298;2023-04-24T02:26:18;6.85;;;4.50;;
43504;SDS011;29098;48.184;16.298;2023-04-24T02:28:44;6.72;;;4.50;;
43504;SDS011;29098;48.184;16.298;2023-04-24T02:31:09;7.95;;;3.80;;
43504;SDS011;29098;48.184;16.298;2023-04-24T02:33:35;7.60;;;4.30;;
43504;SDS011;29098;48.184;16.298;2023-04-24T02:36:01;8.75;;;4.38;;
43504;SDS011;29098;48.184;16.298;2023-04-24T02:38:27;6.78;;;4.00;;
43504;SDS011;29098;48.184;16.298;2023-04-24T02:40:53;5.18;;;3.45;;
43504;SDS011;29098;48.184;16.298;2023-04-24T02:43:19;7.72;;;3.78;;
43504;SDS011;29098;48.184;16.298;2023-04-24T02:45:45;6.90;;;4.68;;
43504;SDS011;29098;48.184;16.298;2023-04-24T02:48:10;4.38;;;2.92;;
43504;SDS011;29098;48.184;16.298;2023-04-24T02:50:36;9.73;;;3.60;;
43504;SDS011;29098;48.184;16.298;2023-04-24T02:53:01;6.75;;;4.38;;
43504;SDS011;29098;48.184;16.298;2023-04-24T02:55:27;5.40;;;3.20;;
43504;SDS011;29098;48.184;16.298;2023-04-24T02:57:52;8.20;;;3.30;;
43504;SDS011;29098;48.184;16.298;2023-04-24T03:00:18;7.28;;;4.25;;
43504;SDS011;29098;48.184;16.298;2023-04-24T03:02:44;8.15;;;3.92;;
43504;SDS011;29098;48.184;16.298;2023-04-24T03:05:10;6.35;;;3.95;;
43504;SDS011;29098;48.184;16.298;2023-04-24T03:07:37;5.47;;;3.30;;
43504;SDS011;29098;48.184;16.298;2023-04-24T03:10:02;5.57;;;2.90;;
43504;SDS011;29098;48.184;16.298;2023-04-24T03:12:29;5.65;;;3.25;;
43504;SDS011;29098;48.184;16.298;2023-04-24T03:14:55;5.53;;;3.67;;
43504;SDS011;29098;48.184;16.298;2023-04-24T03:17:21;5.55;;;3.25;;
43504;SDS011;29098;48.184;16.298;2023-04-24T03:19:46;5.03;;;3.08;;
43504;SDS011;29098;48.184;16.298;2023-04-24T03:22:12;5.25;;;3.03;;
43504;SDS011;29098;48.184;16.298;2023-04-24T03:24:37;5.65;;;3.33;;
43504;SDS011;29098;48.184;16.298;2023-04-24T03:27:03;6.35;;;3.38;;
43504;SDS011;29098;48.184;16.298;2023-04-24T03:29:28;6.05;;;3.25;;
43504;SDS011;29098;48.184;16.298;2023-04-24T03:31:54;5.18;;;2.88;;
43504;SDS011;29098;48.184;16.298;2023-04-24T03:34:19;5.50;;;2.78;;
43504;SDS011;29098;48.184;16.298;2023-04-24T03:36:45;5.35;;;2.92;;
43504;SDS011;29098;48.184;16.298;2023-04-24T03:39:12;5.72;;;3.50;;
43504;SDS011;29098;48.184;16.298;2023-04-24T03:41:38;5.07;;;3.22;;
43504;SDS011;29098;48.184;16.298;2023-04-24T03:44:03;6.03;;;3.47;;
43504;SDS011;29098;48.184;16.298;2023-04-24T03:46:29;5.20;;;3.15;;
43504;SDS011;29098;48.184;16.298;2023-04-24T03:48:55;5.07;;;3.10;;
43504;SDS011;29098;48.184;16.298;2023-04-24T03:51:20;8.00;;;3.60;;
43504;SDS011;29098;48.184;16.298;2023-04-24T03:53:46;6.68;;;3.40;;
43504;SDS011;29098;48.184;16.298;2023-04-24T03:56:12;4.93;;;2.97;;
43504;SDS011;29098;48.184;16.298;2023-04-24T03:58:37;5.30;;;3.05;;
43504;SDS011;29098;48.184;16.298;2023-04-24T04:01:03;5.13;;;3.03;;
43504;SDS011;29098;48.184;16.298;2023-04-24T04:03:28;4.20;;;2.45;;
43504;SDS011;29098;48.184;16.298;2023-04-24T04:05:54;5.30;;;3.20;;
43504;SDS011;29098;48.184;16.298;2023-04-24T04:08:19;5.72;;;3.08;;
43504;SDS011;29098;48.184;16.298;2023-04-24T04:10:45;5.43;;;2.95;;
43504;SDS011;29098;48.184;16.298;2023-04-24T04:13:10;4.93;;;3.03;;
43504;SDS011;29098;48.184;16.298;2023-04-24T04:15:36;4.88;;;3.00;;
43504;SDS011;29098;48.184;16.298;2023-04-24T04:18:01;5.55;;;3.63;;
43504;SDS011;29098;48.184;16.298;2023-04-24T04:20:27;7.53;;;3.38;;
43504;SDS011;29098;48.184;16.298;2023-04-24T04:22:52;4.40;;;2.78;;
43504;SDS011;29098;48.184;16.298;2023-04-24T04:25:18;4.43;;;2.90;;
43504;SDS011;29098;48.184;16.298;2023-04-24T04:27:44;5.05;;;2.75;;
43504;SDS011;29098;48.184;16.298;2023-04-24T04:30:13;5.43;;;3.20;;
43504;SDS011;29098;48.184;16.298;2023-04-24T04:32:40;7.40;;;2.80;;
43504;SDS011;29098;48.184;16.298;2023-04-24T04:35:05;5.07;;;2.60;;
43504;SDS011;29098;48.184;16.298;2023-04-24T04:37:31;5.05;;;2.67;;
43504;SDS011;29098;48.184;16.298;2023-04-24T04:39:58;4.30;;;2.67;;
43504;SDS011;29098;48.184;16.298;2023-04-24T04:42:24;4.20;;;2.67;;
43504;SDS011;29098;48.184;16.298;2023-04-24T04:44:51;6.38;;;2.95;;
43504;SDS011;29098;48.184;16.298;2023-04-24T04:47:17;4.65;;;3.15;;
43504;SDS011;29098;48.184;16.298;2023-04-24T04:49:43;5.65;;;3.10;;
43504;SDS011;29098;48.184;16.298;2023-04-24T04:52:09;5.40;;;2.80;;
43504;SDS011;29098;48.184;16.298;2023-04-24T04:54:34;4.13;;;2.72;;
43504;SDS011;29098;48.184;16.298;2023-04-24T04:57:00;4.28;;;2.40;;
43504;SDS011;29098;48.184;16.298;2023-04-24T04:59:26;4.60;;;2.38;;
43504;SDS011;29098;48.184;16.298;2023-04-24T05:01:51;4.55;;;2.53;;
43504;SDS011;29098;48.184;16.298;2023-04-24T05:04:17;5.30;;;2.53;;
43504;SDS011;29098;48.184;16.298;2023-04-24T05:06:43;4.88;;;2.35;;
43504;SDS011;29098;48.184;16.298;2023-04-24T05:09:08;4.40;;;2.78;;
43504;SDS011;29098;48.184;16.298;2023-04-24T05:11:34;3.65;;;2.17;;
43504;SDS011;29098;48.184;16.298;2023-04-24T05:14:00;5.22;;;2.67;;
43504;SDS011;29098;48.184;16.298;2023-04-24T05:16:25;4.47;;;2.22;;
43504;SDS011;29098;48.184;16.298;2023-04-24T05:18:51;4.25;;;2.90;;
43504;SDS011;29098;48.184;16.298;2023-04-24T05:21:17;6.93;;;2.90;;
43504;SDS011;29098;48.184;16.298;2023-04-24T05:23:42;4.80;;;2.50;;
43504;SDS011;29098;48.184;16.298;2023-04-24T05:26:08;4.82;;;2.88;;
43504;SDS011;29098;48.184;16.298;2023-04-24T05:28:33;4.95;;;3.00;;
43504;SDS011;29098;48.184;16.298;2023-04-24T05:31:01;7.40;;;3.15;;
43504;SDS011;29098;48.184;16.298;2023-04-24T05:33:27;6.07;;;2.90;;
43504;SDS011;29098;48.184;16.298;2023-04-24T05:35:52;5.63;;;2.25;;
43504;SDS011;29098;48.184;16.298;2023-04-24T05:38:18;4.30;;;2.65;;
43504;SDS011;29098;48.184;16.298;2023-04-24T05:40:44;4.88;;;2.58;;
43504;SDS011;29098;48.184;16.298;2023-04-24T05:43:10;4.47;;;3.03;;
43504;SDS011;29098;48.184;16.298;2023-04-24T05:45:36;6.55;;;2.78;;
43504;SDS011;29098;48.184;16.298;2023-04-24T05:48:02;4.20;;;2.47;;
43504;SDS011;29098;48.184;16.298;2023-04-24T05:50:28;4.20;;;2.55;;
43504;SDS011;29098;48.184;16.298;2023-04-24T05:52:53;4.72;;;2.90;;
43504;SDS011;29098;48.184;16.298;2023-04-24T05:55:19;4.88;;;2.50;;
43504;SDS011;29098;48.184;16.298;2023-04-24T05:57:45;5.05;;;2.58;;
43504;SDS011;29098;48.184;16.298;2023-04-24T06:00:11;4.15;;;2.42;;
43504;SDS011;29098;48.184;16.298;2023-04-24T06:02:39;4.32;;;2.30;;
43504;SDS011;29098;48.184;16.298;2023-04-24T06:05:05;3.75;;;2.13;;
43504;SDS011;29098;48.184;16.298;2023-04-24T06:07:30;4.15;;;2.13;;
43504;SDS011;29098;48.184;16.298;2023-04-24T06:09:56;5.88;;;2.50;;
43504;SDS011;29098;48.184;16.298;2023-04-24T06:12:22;7.55;;;2.20;;
43504;SDS011;29098;48.184;16.298;2023-04-24T06:14:48;3.70;;;1.90;;
43504;SDS011;29098;48.184;16.298;2023-04-24T06:17:13;4.50;;;2.28;;
43504;SDS011;29098;48.184;16.298;2023-04-24T06:19:39;4.25;;;2.70;;
43504;SDS011;29098;48.184;16.298;2023-04-24T06:22:05;3.58;;;2.47;;
43504;SDS011;29098;48.184;16.298;2023-04-24T06:24:31;4.88;;;2.33;;
43504;SDS011;29098;48.184;16.298;2023-04-24T06:26:57;4.60;;;2.38;;
43504;SDS011;29098;48.184;16.298;2023-04-24T06:29:23;4.65;;;2.60;;
43504;SDS011;29098;48.184;16.298;2023-04-24T06:31:49;3.97;;;2.45;;
43504;SDS011;29098;48.184;16.298;2023-04-24T06:34:15;4.65;;;2.30;;
43504;SDS011;29098;48.184;16.298;2023-04-24T06:36:40;3.00;;;2.00;;
43504;SDS011;29098;48.184;16.298;2023-04-24T06:39:06;5.28;;;2.72;;
43504;SDS011;29098;48.184;16.298;2023-04-24T06:41:32;3.85;;;2.72;;
43504;SDS011;29098;48.184;16.298;2023-04-24T06:43:57;4.18;;;1.90;;
43504;SDS011;29098;48.184;16.298;2023-04-24T06:46:22;3.95;;;2.42;;
43504;SDS011;29098;48.184;16.298;2023-04-24T06:48:51;4.22;;;2.50;;
43504;SDS011;29098;48.184;16.298;2023-04-24T06:51:17;3.67;;;1.88;;
43504;SDS011;29098;48.184;16.298;2023-04-24T06:53:43;2.97;;;1.90;;
43504;SDS011;29098;48.184;16.298;2023-04-24T06:56:08;2.75;;;1.70;;
43504;SDS011;29098;48.184;16.298;2023-04-24T06:58:34;2.65;;;1.40;;
43504;SDS011;29098;48.184;16.298;2023-04-24T07:00:59;2.72;;;1.70;;
43504;SDS011;29098;48.184;16.298;2023-04-24T07:03:25;4.30;;;2.25;;
43504;SDS011;29098;48.184;16.298;2023-04-24T07:05:50;6.18;;;1.90;;
43504;SDS011;29098;48.184;16.298;2023-04-24T07:08:16;4.63;;;1.70;;
43504;SDS011;29098;48.184;16.298;2023-04-24T07:10:42;4.20;;;1.90;;
43504;SDS011;29098;48.184;16.298;2023-04-24T07:13:09;2.72;;;1.60;;
43504;SDS011;29098;48.184;16.298;2023-04-24T07:15:34;3.03;;;1.95;;
43504;SDS011;29098;48.184;16.298;2023-04-24T07:18:00;2.80;;;1.63;;
43504;SDS011;29098;48.184;16.298;2023-04-24T07:20:25;4.45;;;2.05;;
43504;SDS011;29098;48.184;16.298;2023-04-24T07:22:51;2.72;;;1.60;;
43504;SDS011;29098;48.184;16.298;2023-04-24T07:25:19;3.13;;;1.65;;
43504;SDS011;29098;48.184;16.298;2023-04-24T07:27:45;6.18;;;4.00;;
43504;SDS011;29098;48.184;16.298;2023-04-24T07:30:11;3.30;;;1.92;;
43504;SDS011;29098;48.184;16.298;2023-04-24T07:32:36;2.15;;;1.30;;
43504;SDS011;29098;48.184;16.298;2023-04-24T07:35:02;4.22;;;2.53;;
43504;SDS011;29098;48.184;16.298;2023-04-24T07:37:27;2.35;;;1.40;;
43504;SDS011;29098;48.184;16.298;2023-04-24T07:39:53;3.08;;;1.70;;
43504;SDS011;29098;48.184;16.298;2023-04-24T07:42:18;3.08;;;1.48;;
43504;SDS011;29098;48.184;16.298;2023-04-24T07:44:44;3.35;;;1.63;;
43504;SDS011;29098;48.184;16.298;2023-04-24T07:47:10;3.97;;;2.70;;
43504;SDS011;29098;48.184;16.298;2023-04-24T07:49:36;4.20;;;1.80;;
43504;SDS011;29098;48.184;16.298;2023-04-24T07:52:01;4.50;;;1.88;;
43504;SDS011;29098;48.184;16.298;2023-04-24T07:54:27;6.32;;;2.78;;
43504;SDS011;29098;48.184;16.298;2023-04-24T07:56:53;3.63;;;2.20;;
43504;SDS011;29098;48.184;16.298;2023-04-24T07:59:19;5.40;;;2.67;;
43504;SDS011;29098;48.184;16.298;2023-04-24T08:01:44;4.97;;;2.25;;
43504;SDS011;29098;48.184;16.298;2023-04-24T08:04:10;4.63;;;2.75;;
43504;SDS011;29098;48.184;16.298;2023-04-24T08:06:35;6.82;;;4.47;;
43504;SDS011;29098;48.184;16.298;2023-04-24T08:09:01;7.95;;;3.15;;
43504;SDS011;29098;48.184;16.298;2023-04-24T08:11:27;4.50;;;1.92;;
43504;SDS011;29098;48.184;16.298;2023-04-24T08:13:52;3.13;;;1.50;;
43504;SDS011;29098;48.184;16.298;2023-04-24T08:16:19;16.15;;;9.82;;
43504;SDS011;29098;48.184;16.298;2023-04-24T08:18:44;3.00;;;1.80;;
43504;SDS011;29098;48.184;16.298;2023-04-24T08:21:10;3.85;;;2.38;;
43504;SDS011;29098;48.184;16.298;2023-04-24T08:23:37;2.70;;;1.77;;
43504;SDS011;29098;48.184;16.298;2023-04-24T08:26:03;3.22;;;1.63;;
43504;SDS011;29098;48.184;16.298;2023-04-24T08:28:29;2.85;;;1.73;;
43504;SDS011;29098;48.184;16.298;2023-04-24T08:30:54;2.83;;;1.60;;
43504;SDS011;29098;48.184;16.298;2023-04-24T08:33:21;3.75;;;1.77;;
43504;SDS011;29098;48.184;16.298;2023-04-24T08:35:49;2.67;;;1.50;;
43504;SDS011;29098;48.184;16.298;2023-04-24T08:38:15;4.32;;;1.45;;
43504;SDS011;29098;48.184;16.298;2023-04-24T08:40:41;2.20;;;1.45;;
43504;SDS011;29098;48.184;16.298;2023-04-24T08:43:07;2.47;;;1.30;;
43504;SDS011;29098;48.184;16.298;2023-04-24T08:45:33;3.97;;;1.30;;
43504;SDS011;29098;48.184;16.298;2023-04-24T08:47:59;2.22;;;1.13;;
43504;SDS011;29098;48.184;16.298;2023-04-24T08:50:25;1.38;;;0.90;;
43504;SDS011;29098;48.184;16.298;2023-04-24T08:52:51;2.45;;;1.20;;
43504;SDS011;29098;48.184;16.298;2023-04-24T08:55:21;5.55;;;1.60;;
43504;SDS011;29098;48.184;16.298;2023-04-24T08:57:49;3.15;;;1.05;;
43504;SDS011;29098;48.184;16.298;2023-04-24T09:00:17;1.77;;;0.90;;
43504;SDS011;29098;48.184;16.298;2023-04-24T09:02:44;1.73;;;1.00;;
43504;SDS011;29098;48.184;16.298;2023-04-24T09:05:13;1.77;;;0.82;;
43504;SDS011;29098;48.184;16.298;2023-04-24T09:07:41;5.25;;;1.88;;
43504;SDS011;29098;48.184;16.298;2023-04-24T09:10:15;2.95;;;0.95;;
43504;SDS011;29098;48.184;16.298;2023-04-24T09:12:41;2.22;;;0.80;;
43504;SDS011;29098;48.184;16.298;2023-04-24T09:15:07;1.90;;;0.98;;
43504;SDS011;29098;48.184;16.298;2023-04-24T09:17:33;1.73;;;0.93;;
43504;SDS011;29098;48.184;16.298;2023-04-24T09:20:00;1.63;;;0.77;;
43504;SDS011;29098;48.184;16.298;2023-04-24T09:22:28;1.25;;;0.60;;
43504;SDS011;29098;48.184;16.298;2023-04-24T09:25:05;1.73;;;0.80;;
43504;SDS011;29098;48.184;16.298;2023-04-24T09:27:33;3.55;;;1.05;;
43504;SDS011;29098;48.184;16.298;2023-04-24T09:29:59;3.08;;;0.80;;
43504;SDS011;29098;48.184;16.298;2023-04-24T09:32:25;1.65;;;0.90;;
43504;SDS011;29098;48.184;16.298;2023-04-24T09:35:10;4.25;;;1.40;;
43504;SDS011;29098;48.184;16.298;2023-04-24T09:37:40;2.35;;;1.20;;
43504;SDS011;29098;48.184;16.298;2023-04-24T09:40:11;2.95;;;0.90;;
43504;SDS011;29098;48.184;16.298;2023-04-24T09:42:37;1.90;;;0.93;;
43504;SDS011;29098;48.184;16.298;2023-04-24T09:45:03;1.55;;;0.75;;
43504;SDS011;29098;48.184;16.298;2023-04-24T09:47:36;0.85;;;0.60;;
43504;SDS011;29098;48.184;16.298;2023-04-24T09:50:12;3.20;;;1.75;;
43504;SDS011;29098;48.184;16.298;2023-04-24T09:52:45;1.38;;;0.70;;
43504;SDS011;29098;48.184;16.298;2023-04-24T09:55:14;3.78;;;2.22;;
43504;SDS011;29098;48.184;16.298;2023-04-24T09:57:52;3.25;;;1.42;;
43504;SDS011;29098;48.184;16.298;2023-04-24T10:00:40;2.35;;;1.00;;
43504;SDS011;29098;48.184;16.298;2023-04-24T10:03:05;4.25;;;1.65;;
43504;SDS011;29098;48.184;16.298;2023-04-24T10:05:33;1.27;;;0.80;;
43504;SDS011;29098;48.184;16.298;2023-04-24T10:08:01;3.30;;;2.20;;
43504;SDS011;29098;48.184;16.298;2023-04-24T10:10:28;3.42;;;1.45;;
43504;SDS011;29098;48.184;16.298;2023-04-24T10:12:54;1.13;;;0.85;;
43504;SDS011;29098;48.184;16.298;2023-04-24T10:15:20;1.42;;;1.00;;
43504;SDS011;29098;48.184;16.298;2023-04-24T10:17:47;1.40;;;0.60;;
43504;SDS011;29098;48.184;16.298;2023-04-24T10:20:18;1.40;;;0.82;;
43504;SDS011;29098;48.184;16.298;2023-04-24T10:22:46;2.15;;;0.90;;
43504;SDS011;29098;48.184;16.298;2023-04-24T10:25:15;1.88;;;1.00;;
43504;SDS011;29098;48.184;16.298;2023-04-24T10:27:42;4.30;;;1.13;;
43504;SDS011;29098;48.184;16.298;2023-04-24T10:30:08;2.63;;;1.27;;
43504;SDS011;29098;48.184;16.298;2023-04-24T10:32:36;2.30;;;1.15;;
43504;SDS011;29098;48.184;16.298;2023-04-24T10:35:01;2.25;;;1.20;;
43504;SDS011;29098;48.184;16.298;2023-04-24T10:37:27;5.15;;;1.27;;
43504;SDS011;29098;48.184;16.298;2023-04-24T10:39:53;2.17;;;1.23;;
43504;SDS011;29098;48.184;16.298;2023-04-24T10:42:21;3.90;;;1.30;;
43504;SDS011;29098;48.184;16.298;2023-04-24T10:44:47;2.42;;;1.30;;
43504;SDS011;29098;48.184;16.298;2023-04-24T10:47:14;2.20;;;1.25;;
43504;SDS011;29098;48.184;16.298;2023-04-24T10:49:39;2.05;;;1.08;;
43504;SDS011;29098;48.184;16.298;2023-04-24T10:52:05;2.67;;;0.98;;
43504;SDS011;29098;48.184;16.298;2023-04-24T10:59:43;1.58;;;0.90;;
43504;SDS011;29098;48.184;16.298;2023-04-24T11:02:09;1.85;;;1.20;;
43504;SDS011;29098;48.184;16.298;2023-04-24T11:04:35;3.25;;;1.20;;
43504;SDS011;29098;48.184;16.298;2023-04-24T11:07:02;1.65;;;0.98;;
43504;SDS011;29098;48.184;16.298;2023-04-24T11:09:31;2.50;;;0.98;;
43504;SDS011;29098;48.184;16.298;2023-04-24T11:12:07;3.70;;;2.45;;
43504;SDS011;29098;48.184;16.298;2023-04-24T11:17:31;2.33;;;1.10;;
43504;SDS011;29098;48.184;16.298;2023-04-24T11:20:04;1.57;;;1.17;;
43504;SDS011;29098;48.184;16.298;2023-04-24T11:22:35;1.85;;;0.95;;
43504;SDS011;29098;48.184;16.298;2023-04-24T11:25:02;2.85;;;1.30;;
43504;SDS011;29098;48.184;16.298;2023-04-24T11:27:31;3.05;;;1.27;;
43504;SDS011;29098;48.184;16.298;2023-04-24T11:30:04;1.95;;;0.93;;
43504;SDS011;29098;48.184;16.298;2023-04-24T11:35:06;1.88;;;1.10;;
43504;SDS011;29098;48.184;16.298;2023-04-24T11:37:48;1.63;;;0.93;;
43504;SDS011;29098;48.184;16.298;2023-04-24T11:40:30;1.52;;;0.90;;
43504;SDS011;29098;48.184;16.298;2023-04-24T11:42:56;2.00;;;1.10;;
43504;SDS011;29098;48.184;16.298;2023-04-24T11:45:25;2.45;;;1.17;;
43504;SDS011;29098;48.184;16.298;2023-04-24T11:47:52;1.80;;;1.30;;
43504;SDS011;29098;48.184;16.298;2023-04-24T11:50:19;2.42;;;1.38;;
43504;SDS011;29098;48.184;16.298;2023-04-24T11:52:47;1.95;;;1.20;;
43504;SDS011;29098;48.184;16.298;2023-04-24T11:57:39;2.80;;;1.20;;
43504;SDS011;29098;48.184;16.298;2023-04-24T12:00:14;2.83;;;1.80;;
43504;SDS011;29098;48.184;16.298;2023-04-24T12:02:43;2.60;;;1.17;;
43504;SDS011;29098;48.184;16.298;2023-04-24T12:05:09;2.30;;;1.20;;
43504;SDS011;29098;48.184;16.298;2023-04-24T12:07:43;5.90;;;3.25;;
43504;SDS011;29098;48.184;16.298;2023-04-24T12:10:12;3.65;;;1.90;;
43504;SDS011;29098;48.184;16.298;2023-04-24T12:12:37;5.65;;;1.50;;
43504;SDS011;29098;48.184;16.298;2023-04-24T12:15:07;2.80;;;1.40;;
43504;SDS011;29098;48.184;16.298;2023-04-24T12:17:33;3.78;;;1.40;;
43504;SDS011;29098;48.184;16.298;2023-04-24T12:20:01;3.63;;;1.23;;
43504;SDS011;29098;48.184;16.298;2023-04-24T12:22:42;4.35;;;1.73;;
43504;SDS011;29098;48.184;16.298;2023-04-24T12:25:19;4.05;;;1.80;;
43504;SDS011;29098;48.184;16.298;2023-04-24T12:27:45;1.88;;;1.08;;
43504;SDS011;29098;48.184;16.298;2023-04-24T12:30:13;5.22;;;2.47;;
43504;SDS011;29098;48.184;16.298;2023-04-24T12:32:47;8.98;;;5.35;;
43504;SDS011;29098;48.184;16.298;2023-04-24T12:35:18;5.65;;;3.17;;
43504;SDS011;29098;48.184;16.298;2023-04-24T12:37:45;5.43;;;3.47;;
43504;SDS011;29098;48.184;16.298;2023-04-24T12:40:11;4.72;;;2.63;;
43504;SDS011;29098;48.184;16.298;2023-04-24T12:42:48;5.78;;;2.45;;
43504;SDS011;29098;48.184;16.298;2023-04-24T12:45:15;4.22;;;2.28;;
43504;SDS011;29098;48.184;16.298;2023-04-24T12:47:42;4.45;;;2.20;;
43504;SDS011;29098;48.184;16.298;2023-04-24T12:50:09;3.33;;;1.50;;
43504;SDS011;29098;48.184;16.298;2023-04-24T12:52:36;3.30;;;1.88;;
43504;SDS011;29098;48.184;16.298;2023-04-24T12:55:02;3.33;;;1.90;;
43504;SDS011;29098;48.184;16.298;2023-04-24T12:57:28;3.30;;;1.85;;
43504;SDS011;29098;48.184;16.298;2023-04-24T12:59:55;4.63;;;1.92;;
43504;SDS011;29098;48.184;16.298;2023-04-24T13:02:22;3.90;;;2.28;;
43504;SDS011;29098;48.184;16.298;2023-04-24T13:04:48;4.35;;;1.90;;
43504;SDS011;29098;48.184;16.298;2023-04-24T13:07:14;5.05;;;2.45;;
43504;SDS011;29098;48.184;16.298;2023-04-24T13:09:40;2.92;;;1.80;;
43504;SDS011;29098;48.184;16.298;2023-04-24T13:12:07;3.22;;;1.40;;
43504;SDS011;29098;48.184;16.298;2023-04-24T13:14:38;3.42;;;1.70;;
43504;SDS011;29098;48.184;16.298;2023-04-24T13:17:04;3.25;;;2.13;;
43504;SDS011;29098;48.184;16.298;2023-04-24T13:19:30;4.35;;;2.30;;
43504;SDS011;29098;48.184;16.298;2023-04-24T13:22:03;3.30;;;2.50;;
43504;SDS011;29098;48.184;16.298;2023-04-24T13:24:29;2.10;;;1.17;;
43504;SDS011;29098;48.184;16.298;2023-04-24T13:26:56;3.28;;;2.08;;
43504;SDS011;29098;48.184;16.298;2023-04-24T13:29:22;4.78;;;2.72;;
43504;SDS011;29098;48.184;16.298;2023-04-24T13:31:51;3.80;;;2.00;;
43504;SDS011;29098;48.184;16.298;2023-04-24T13:34:20;3.42;;;1.70;;
43504;SDS011;29098;48.184;16.298;2023-04-24T13:36:46;4.82;;;2.15;;
43504;SDS011;29098;48.184;16.298;2023-04-24T13:39:12;4.40;;;1.98;;
43504;SDS011;29098;48.184;16.298;2023-04-24T13:41:37;4.20;;;2.20;;
43504;SDS011;29098;48.184;16.298;2023-04-24T13:44:05;3.38;;;1.50;;
43504;SDS011;29098;48.184;16.298;2023-04-24T13:46:31;3.10;;;2.13;;
43504;SDS011;29098;48.184;16.298;2023-04-24T13:48:57;8.38;;;7.57;;
43504;SDS011;29098;48.184;16.298;2023-04-24T13:57:21;2.58;;;1.10;;
43504;SDS011;29098;48.184;16.298;2023-04-24T13:59:46;2.05;;;1.60;;
43504;SDS011;29098;48.184;16.298;2023-04-24T14:02:12;3.55;;;2.40;;
43504;SDS011;29098;48.184;16.298;2023-04-24T14:04:40;5.80;;;4.55;;
43504;SDS011;29098;48.184;16.298;2023-04-24T14:07:05;3.63;;;1.48;;
43504;SDS011;29098;48.184;16.298;2023-04-24T14:09:31;3.60;;;2.10;;
43504;SDS011;29098;48.184;16.298;2023-04-24T14:11:59;3.60;;;1.90;;
43504;SDS011;29098;48.184;16.298;2023-04-24T14:14:26;3.30;;;2.10;;
43504;SDS011;29098;48.184;16.298;2023-04-24T14:16:52;3.45;;;1.75;;
43504;SDS011;29098;48.184;16.298;2023-04-24T14:19:17;2.95;;;1.75;;
43504;SDS011;29098;48.184;16.298;2023-04-24T14:21:43;3.78;;;1.90;;
43504;SDS011;29098;48.184;16.298;2023-04-24T14:24:10;3.15;;;1.75;;
43504;SDS011;29098;48.184;16.298;2023-04-24T14:26:36;3.65;;;2.15;;
43504;SDS011;29098;48.184;16.298;2023-04-24T14:29:02;2.60;;;1.33;;
43504;SDS011;29098;48.184;16.298;2023-04-24T14:31:27;5.70;;;1.75;;
43504;SDS011;29098;48.184;16.298;2023-04-24T14:33:53;2.88;;;1.58;;
43504;SDS011;29098;48.184;16.298;2023-04-24T14:36:18;5.68;;;1.85;;
43504;SDS011;29098;48.184;16.298;2023-04-24T14:38:44;3.95;;;2.10;;
43504;SDS011;29098;48.184;16.298;2023-04-24T14:41:10;4.45;;;1.70;;
43504;SDS011;29098;48.184;16.298;2023-04-24T14:43:36;4.38;;;2.22;;
43504;SDS011;29098;48.184;16.298;2023-04-24T14:46:02;4.28;;;1.60;;
43504;SDS011;29098;48.184;16.298;2023-04-24T14:48:28;5.22;;;2.63;;
43504;SDS011;29098;48.184;16.298;2023-04-24T14:50:53;3.15;;;1.92;;